Time;durP1;ratioP1;P1;durP2;ratioP2;P2;SDS_P1;SDS_P2;PMS_P1;PMS_P2;Temp;Humidity;BMP_temperature;BMP_pressure;BME280_temperature;BME280_humidity;BME280_pressure;Samples;Min_cycle;Max_cycle;Signal;HPM_P1;HPM_P2
2021/10/20 00:00:48;;;;;;;11.77;7.07;;;17.80;99.90;;;;;;6192680;23;20060;-89
2021/10/20 00:03:14;;;;;;;9.30;6.28;;;17.80;99.90;;;;;;6192473;23;20189;-89
2021/10/20 00:05:40;;;;;;;10.68;6.43;;;17.80;99.90;;;;;;6193575;23;20004;-89
2021/10/20 00:08:07;;;;;;;9.27;6.72;;;17.80;99.90;;;;;;6193500;23;20001;-89
2021/10/20 00:10:34;;;;;;;9.02;6.53;;;17.80;99.90;;;;;;6192539;23;20201;-89
2021/10/20 00:13:00;;;;;;;10.57;6.75;;;17.80;99.90;;;;;;6193469;23;20001;-89
2021/10/20 00:15:27;;;;;;;7.80;6.75;;;17.90;99.90;;;;;;6193100;23;20035;-88
2021/10/20 00:17:52;;;;;;;9.50;6.55;;;17.90;99.90;;;;;;6193806;23;20016;-88
2021/10/20 00:20:22;;;;;;;9.20;7.07;;;17.90;99.90;;;;;;6193681;23;20012;-88
2021/10/20 00:22:49;;;;;;;10.07;6.90;;;17.90;99.90;;;;;;6194754;23;20051;-89
2021/10/20 00:25:15;;;;;;;11.88;7.93;;;17.80;99.90;;;;;;6195259;23;20008;-89
2021/10/20 00:27:42;;;;;;;10.85;7.88;;;17.80;99.90;;;;;;6193637;23;19997;-89
2021/10/20 00:30:08;;;;;;;12.57;7.68;;;17.80;99.90;;;;;;6193835;23;20001;-89
2021/10/20 00:32:34;;;;;;;10.70;7.65;;;17.80;99.90;;;;;;6193800;23;20044;-88
2021/10/20 00:34:59;;;;;;;10.90;7.60;;;17.80;99.90;;;;;;6193643;23;20008;-89
2021/10/20 00:37:25;;;;;;;8.88;7.43;;;17.70;99.90;;;;;;6193645;23;20293;-89
2021/10/20 00:39:51;;;;;;;11.98;7.70;;;17.70;99.90;;;;;;6192304;23;20005;-89
2021/10/20 00:42:19;;;;;;;10.73;7.80;;;17.70;99.90;;;;;;6192478;23;20072;-89
2021/10/20 00:44:56;;;;;;;10.90;7.70;;;17.70;99.90;;;;;;6193843;23;20352;-89
2021/10/20 00:47:23;;;;;;;11.23;8.35;;;17.70;99.90;;;;;;6192369;23;20027;-89
2021/10/20 00:49:50;;;;;;;14.05;8.18;;;17.70;99.90;;;;;;6192228;23;20004;-89
2021/10/20 00:52:20;;;;;;;14.68;8.07;;;17.70;99.90;;;;;;6194094;23;19997;-89
2021/10/20 00:54:47;;;;;;;12.18;9.10;;;17.70;99.90;;;;;;6191962;23;20005;-89
2021/10/20 00:57:14;;;;;;;12.13;8.10;;;17.70;99.90;;;;;;6192928;23;20005;-89
2021/10/20 00:59:40;;;;;;;12.98;9.00;;;17.70;99.90;;;;;;6193891;23;20172;-89
2021/10/20 01:02:07;;;;;;;11.20;8.57;;;17.70;99.90;;;;;;6193428;23;20001;-89
2021/10/20 01:04:33;;;;;;;9.32;8.07;;;17.60;99.90;;;;;;6193119;23;20032;-89
2021/10/20 01:06:59;;;;;;;15.35;8.68;;;17.60;99.90;;;;;;6193534;23;20001;-89
2021/10/20 01:09:25;;;;;;;12.63;8.40;;;17.60;99.90;;;;;;6193614;23;20004;-89
2021/10/20 01:11:51;;;;;;;10.98;7.72;;;17.70;99.90;;;;;;6193812;23;20217;-89
2021/10/20 01:14:17;;;;;;;13.75;8.35;;;17.70;99.90;;;;;;6193605;23;19985;-89
2021/10/20 01:16:43;;;;;;;11.50;7.93;;;17.70;99.90;;;;;;6193516;23;20036;-88
2021/10/20 01:19:09;;;;;;;11.18;8.25;;;17.70;99.90;;;;;;6191803;23;19993;-88
2021/10/20 01:21:36;;;;;;;11.90;7.57;;;17.70;99.90;;;;;;6191498;23;20236;-89
2021/10/20 01:24:02;;;;;;;11.90;7.85;;;17.70;99.90;;;;;;6192882;23;20009;-89
2021/10/20 01:26:29;;;;;;;15.77;8.50;;;17.70;99.90;;;;;;6193916;23;19989;-90
2021/10/20 01:28:55;;;;;;;10.95;7.88;;;17.60;99.90;;;;;;6191282;23;20356;-89
2021/10/20 01:31:21;;;;;;;11.63;8.55;;;17.70;99.90;;;;;;6193238;23;20060;-88
2021/10/20 01:33:47;;;;;;;13.27;8.30;;;17.70;99.90;;;;;;6191676;23;20224;-89
2021/10/20 01:36:12;;;;;;;12.85;7.78;;;17.70;99.90;;;;;;6193516;23;19997;-89
2021/10/20 01:38:39;;;;;;;11.68;8.38;;;17.70;99.90;;;;;;6193641;23;19993;-88
2021/10/20 01:41:04;;;;;;;12.88;8.13;;;17.60;99.90;;;;;;6192915;23;20296;-89
2021/10/20 01:43:43;;;;;;;11.32;8.40;;;17.60;99.90;;;;;;6193515;23;20008;-89
2021/10/20 01:46:20;;;;;;;14.68;8.98;;;17.60;99.90;;;;;;6191192;23;19997;-89
2021/10/20 01:48:47;;;;;;;12.40;8.70;;;17.60;99.90;;;;;;6193334;23;20116;-89
2021/10/20 01:51:14;;;;;;;23.08;10.07;;;17.60;99.90;;;;;;6192915;23;19997;-89
2021/10/20 01:53:40;;;;;;;13.93;8.55;;;17.50;99.90;;;;;;6193005;23;20328;-89
2021/10/20 01:56:08;;;;;;;16.17;8.75;;;17.60;99.90;;;;;;6191631;23;19993;-89
2021/10/20 01:58:34;;;;;;;16.20;9.48;;;17.60;99.90;;;;;;6192650;23;20304;-89
2021/10/20 02:00:59;;;;;;;14.30;9.25;;;17.50;99.90;;;;;;6191461;23;20001;-89
2021/10/20 02:03:26;;;;;;;12.10;9.20;;;17.50;99.90;;;;;;6191704;23;20251;-89
2021/10/20 02:05:55;;;;;;;14.68;9.55;;;17.50;99.90;;;;;;6192091;23;20080;-89
2021/10/20 02:08:22;;;;;;;12.82;8.80;;;17.60;99.90;;;;;;6192996;23;20001;-89
2021/10/20 02:10:48;;;;;;;13.77;8.70;;;17.60;99.90;;;;;;6192826;23;19989;-89
2021/10/20 02:13:14;;;;;;;13.35;9.38;;;17.60;99.90;;;;;;6192277;23;20003;-89
2021/10/20 02:15:39;;;;;;;10.95;8.90;;;17.50;99.90;;;;;;6193538;23;20013;-89
2021/10/20 02:18:05;;;;;;;12.77;8.82;;;17.60;99.90;;;;;;6193879;23;20001;-89
2021/10/20 02:20:31;;;;;;;12.40;8.95;;;17.60;99.90;;;;;;6193079;23;20031;-89
2021/10/20 02:22:57;;;;;;;15.20;9.43;;;17.60;99.90;;;;;;6190839;23;20099;-89
2021/10/20 02:25:23;;;;;;;12.98;9.30;;;17.60;99.90;;;;;;6192563;23;20224;-89
2021/10/20 02:27:49;;;;;;;13.48;8.95;;;17.60;99.90;;;;;;6191195;23;20005;-89
2021/10/20 02:30:15;;;;;;;12.40;9.18;;;17.60;99.90;;;;;;6191702;23;19993;-89
2021/10/20 02:32:41;;;;;;;16.60;9.55;;;17.50;99.90;;;;;;6190690;23;20193;-88
2021/10/20 02:35:09;;;;;;;17.17;9.75;;;17.50;99.90;;;;;;6191586;23;20003;-89
2021/10/20 02:37:34;;;;;;;15.52;9.68;;;17.50;99.90;;;;;;6193186;23;20032;-89
2021/10/20 02:40:01;;;;;;;13.90;9.75;;;17.50;99.90;;;;;;6192768;23;20001;-89
2021/10/20 02:42:27;;;;;;;16.50;9.63;;;17.50;99.90;;;;;;6192457;23;20005;-89
2021/10/20 02:44:53;;;;;;;15.07;9.57;;;17.50;99.90;;;;;;6192377;23;20005;-89
2021/10/20 02:47:18;;;;;;;17.52;10.18;;;17.50;99.90;;;;;;6192959;23;20049;-89
2021/10/20 02:49:44;;;;;;;20.13;9.95;;;17.50;99.90;;;;;;6193887;23;19997;-89
2021/10/20 02:52:10;;;;;;;14.38;9.85;;;17.40;99.90;;;;;;6193358;23;20001;-89
2021/10/20 02:54:35;;;;;;;18.52;10.35;;;17.40;99.90;;;;;;6193340;23;20292;-89
2021/10/20 02:57:02;;;;;;;20.85;9.85;;;17.40;99.90;;;;;;6193274;23;20289;-89
2021/10/20 02:59:28;;;;;;;15.95;9.82;;;17.50;99.90;;;;;;6193392;23;20228;-89
2021/10/20 03:01:53;;;;;;;14.80;9.73;;;17.50;99.90;;;;;;6192629;23;20001;-89
2021/10/20 03:04:19;;;;;;;20.30;9.88;;;17.40;99.90;;;;;;6194290;23;20005;-88
2021/10/20 03:06:45;;;;;;;20.27;10.35;;;17.40;99.90;;;;;;6193327;23;20001;-89
2021/10/20 03:09:11;;;;;;;12.07;9.70;;;17.40;99.90;;;;;;6192924;23;19997;-89
2021/10/20 03:11:37;;;;;;;17.38;9.88;;;17.40;99.90;;;;;;6193453;23;20193;-89
2021/10/20 03:14:02;;;;;;;18.10;9.52;;;17.50;99.90;;;;;;6194756;23;20040;-89
2021/10/20 03:16:28;;;;;;;19.25;11.20;;;17.50;99.90;;;;;;6194052;23;20300;-89
2021/10/20 03:18:54;;;;;;;16.35;10.10;;;17.40;99.90;;;;;;6193052;23;20152;-89
2021/10/20 03:21:20;;;;;;;19.50;10.02;;;17.40;99.90;;;;;;6194980;23;20004;-89
2021/10/20 03:23:46;;;;;;;17.17;9.95;;;17.40;99.90;;;;;;6194059;23;20005;-88
2021/10/20 03:26:13;;;;;;;17.45;9.38;;;17.40;99.90;;;;;;6192259;23;20001;-89
2021/10/20 03:28:38;;;;;;;20.95;8.88;;;17.40;99.90;;;;;;6192500;23;20008;-89
2021/10/20 03:31:04;;;;;;;16.08;8.77;;;17.50;99.90;;;;;;6194775;23;19997;-89
2021/10/20 03:33:30;;;;;;;17.70;9.10;;;17.60;99.90;;;;;;6193915;23;20162;-89
2021/10/20 03:35:55;;;;;;;15.35;8.32;;;17.60;99.90;;;;;;6192971;23;20015;-89
2021/10/20 03:38:21;;;;;;;16.15;8.50;;;17.70;99.90;;;;;;6193999;23;20001;-89
2021/10/20 03:40:47;;;;;;;16.35;8.68;;;17.70;99.90;;;;;;6193062;23;19993;-89
2021/10/20 03:43:12;;;;;;;20.70;8.80;;;17.70;99.90;;;;;;6191686;23;20224;-89
2021/10/20 03:45:38;;;;;;;14.10;8.73;;;17.70;99.90;;;;;;6194499;23;20060;-88
2021/10/20 03:48:04;;;;;;;20.98;9.23;;;17.70;99.90;;;;;;6194217;23;20221;-89
2021/10/20 03:50:29;;;;;;;16.63;9.68;;;17.80;99.90;;;;;;6194357;23;20004;-89
2021/10/20 03:52:55;;;;;;;19.50;9.48;;;17.80;99.90;;;;;;6194158;23;20044;-89
2021/10/20 03:55:21;;;;;;;15.77;8.68;;;17.80;99.90;;;;;;6192308;23;20002;-89
2021/10/20 03:57:46;;;;;;;20.92;10.15;;;17.80;99.90;;;;;;6192686;23;20029;-89
2021/10/20 04:00:16;;;;;;;17.40;9.48;;;17.80;99.90;;;;;;6193861;23;19997;-89
2021/10/20 04:02:43;;;;;;;22.17;9.10;;;17.80;99.90;;;;;;6193555;23;20009;-89
2021/10/20 04:05:19;;;;;;;15.40;9.63;;;17.80;99.90;;;;;;6193891;23;20020;-88
2021/10/20 04:07:46;;;;;;;22.85;9.80;;;17.90;99.90;;;;;;6193994;23;20001;-89
2021/10/20 04:10:18;;;;;;;20.90;9.95;;;17.80;99.90;;;;;;6194186;23;20249;-89
2021/10/20 04:12:45;;;;;;;19.48;10.10;;;17.90;99.90;;;;;;6194380;23;19997;-89
2021/10/20 04:15:12;;;;;;;20.65;10.10;;;17.90;99.90;;;;;;6192597;23;20005;-89
2021/10/20 04:17:38;;;;;;;20.30;9.55;;;17.80;99.90;;;;;;6193917;23;20085;-89
2021/10/20 04:20:06;;;;;;;15.80;9.35;;;17.80;99.90;;;;;;6193973;23;19997;-89
2021/10/20 04:22:32;;;;;;;17.65;9.45;;;17.80;99.90;;;;;;6194424;23;20032;-89
2021/10/20 04:24:58;;;;;;;24.05;9.35;;;17.80;99.90;;;;;;6193271;23;20001;-89
2021/10/20 04:27:23;;;;;;;20.77;9.90;;;17.90;99.90;;;;;;6191367;23;20071;-88
2021/10/20 04:29:49;;;;;;;20.77;10.05;;;17.90;99.90;;;;;;6191974;23;20035;-89
2021/10/20 04:32:15;;;;;;;19.65;9.20;;;17.90;99.90;;;;;;6192727;23;19997;-89
2021/10/20 04:34:40;;;;;;;19.23;8.98;;;17.90;99.90;;;;;;6194411;23;19992;-89
2021/10/20 04:37:06;;;;;;;19.10;9.10;;;17.90;99.90;;;;;;6194237;23;20008;-89
2021/10/20 04:39:31;;;;;;;26.60;9.63;;;17.90;99.90;;;;;;6192860;23;20021;-89
2021/10/20 04:41:57;;;;;;;21.23;9.48;;;17.90;99.90;;;;;;6194244;23;19993;-88
2021/10/20 04:44:23;;;;;;;19.13;9.57;;;17.90;99.90;;;;;;6193218;23;20229;-88
2021/10/20 04:46:48;;;;;;;21.30;9.63;;;17.90;99.90;;;;;;6192517;23;20020;-89
2021/10/20 04:49:14;;;;;;;18.70;9.57;;;18.00;99.90;;;;;;6193834;23;20188;-89
2021/10/20 04:51:40;;;;;;;17.80;9.45;;;18.00;99.90;;;;;;6193636;23;20004;-88
2021/10/20 04:54:05;;;;;;;19.08;8.73;;;18.00;99.90;;;;;;6193355;23;20007;-89
2021/10/20 04:56:31;;;;;;;20.55;9.93;;;18.00;99.90;;;;;;6191805;23;20011;-85
2021/10/20 04:58:57;;;;;;;22.25;10.20;;;18.10;99.90;;;;;;6185493;23;20032;-89
2021/10/20 05:01:22;;;;;;;23.10;10.25;;;18.10;99.90;;;;;;6183708;23;20031;-89
2021/10/20 05:03:48;;;;;;;19.45;9.63;;;18.00;99.90;;;;;;6183507;23;20415;-89
2021/10/20 05:06:13;;;;;;;23.40;9.48;;;18.00;99.90;;;;;;6181917;23;20004;-88
2021/10/20 05:08:39;;;;;;;21.35;9.55;;;18.00;99.90;;;;;;6182781;23;20001;-88
2021/10/20 05:11:05;;;;;;;20.00;9.43;;;18.00;99.90;;;;;;6182791;23;20020;-88
2021/10/20 05:13:30;;;;;;;25.88;10.38;;;18.00;99.90;;;;;;6181888;23;20484;-88
2021/10/20 05:15:56;;;;;;;20.13;10.07;;;18.00;99.90;;;;;;6180450;23;20373;-89
2021/10/20 05:18:22;;;;;;;19.30;9.48;;;18.00;99.90;;;;;;6182197;23;20027;-89
2021/10/20 05:20:47;;;;;;;21.42;10.20;;;18.10;99.90;;;;;;6181911;23;20011;-88
2021/10/20 05:23:13;;;;;;;27.35;9.85;;;18.10;99.90;;;;;;6182419;23;20016;-88
2021/10/20 05:25:39;;;;;;;23.77;10.50;;;18.10;99.90;;;;;;6182347;23;19997;-89
2021/10/20 05:28:06;;;;;;;20.92;10.18;;;18.10;99.90;;;;;;6184295;23;20011;-88
2021/10/20 05:30:32;;;;;;;27.33;11.80;;;18.10;99.90;;;;;;6184852;23;19996;-87
2021/10/20 05:32:58;;;;;;;23.60;10.63;;;18.10;99.90;;;;;;6193308;23;20039;-88
2021/10/20 05:35:24;;;;;;;24.23;11.52;;;18.10;99.90;;;;;;6193267;23;20372;-88
2021/10/20 05:37:51;;;;;;;28.38;12.38;;;18.00;99.90;;;;;;6193322;23;20024;-88
2021/10/20 05:40:18;;;;;;;23.85;12.48;;;18.00;99.90;;;;;;6193021;23;19989;-91
2021/10/20 05:42:44;;;;;;;28.92;12.65;;;18.00;99.90;;;;;;6183741;23;20009;-90
2021/10/20 05:45:10;;;;;;;22.25;12.23;;;17.90;99.90;;;;;;6182423;23;20004;-91
2021/10/20 05:47:36;;;;;;;26.73;13.25;;;17.90;99.90;;;;;;6180959;23;20059;-89
2021/10/20 05:50:03;;;;;;;27.42;13.20;;;17.80;99.90;;;;;;6182989;23;20004;-90
2021/10/20 05:52:29;;;;;;;31.42;13.90;;;17.80;99.90;;;;;;6181148;23;20001;-89
2021/10/20 05:54:54;;;;;;;29.38;14.02;;;17.80;99.90;;;;;;6180450;23;20060;-89
2021/10/20 05:57:22;;;;;;;33.83;15.43;;;17.80;99.90;;;;;;6182251;23;19998;-86
2021/10/20 05:59:47;;;;;;;29.52;16.38;;;17.70;99.90;;;;;;6183247;23;20005;-85
2021/10/20 06:02:14;;;;;;;42.70;20.05;;;17.70;99.90;;;;;;6183191;23;20300;-85
2021/10/20 06:04:41;;;;;;;50.03;23.00;;;17.70;99.90;;;;;;6182301;23;20398;-86
2021/10/20 06:07:06;;;;;;;41.83;22.13;;;17.70;99.90;;;;;;6182167;23;20148;-85
2021/10/20 06:09:34;;;;;;;44.72;22.60;;;17.70;99.90;;;;;;6182199;23;20053;-85
2021/10/20 06:12:00;;;;;;;43.92;22.83;;;17.70;99.90;;;;;;6182377;23;20005;-86
2021/10/20 06:14:27;;;;;;;46.50;22.98;;;17.70;99.90;;;;;;6181731;23;20009;-87
2021/10/20 06:16:53;;;;;;;51.28;23.60;;;17.70;99.90;;;;;;6180256;23;20108;-88
2021/10/20 06:19:18;;;;;;;48.50;24.65;;;17.70;99.90;;;;;;6182130;23;20029;-89
2021/10/20 06:21:44;;;;;;;54.72;24.67;;;17.70;99.90;;;;;;6180614;23;20009;-89
2021/10/20 06:24:10;;;;;;;51.03;23.13;;;17.70;99.90;;;;;;6180264;23;20476;-92
2021/10/20 06:26:36;;;;;;;55.05;24.27;;;17.70;99.90;;;;;;6180466;23;20031;-87
2021/10/20 06:29:02;;;;;;;55.13;22.73;;;17.70;99.90;;;;;;6182100;23;20385;-87
2021/10/20 06:31:28;;;;;;;55.85;24.23;;;17.70;99.90;;;;;;6180095;23;20394;-88
2021/10/20 06:33:53;;;;;;;49.80;22.08;;;17.60;99.90;;;;;;6182027;23;20005;-89
2021/10/20 06:36:30;;;;;;;45.97;21.35;;;17.60;99.90;;;;;;6182052;23;20001;-90
2021/10/20 06:38:57;;;;;;;48.42;21.98;;;17.60;99.90;;;;;;6182157;23;20001;-90
2021/10/20 06:41:22;;;;;;;46.33;20.02;;;17.60;99.90;;;;;;6182281;23;20005;-91
2021/10/20 06:43:48;;;;;;;49.42;20.98;;;17.60;99.90;;;;;;6182061;23;20013;-91
2021/10/20 06:46:14;;;;;;;39.92;18.90;;;17.50;99.90;;;;;;6180787;23;20162;-91
2021/10/20 06:48:40;;;;;;;46.83;20.00;;;17.50;99.90;;;;;;6180683;23;20442;-91
2021/10/20 06:51:06;;;;;;;53.78;22.95;;;17.50;99.90;;;;;;6180773;23;20609;-89
2021/10/20 06:53:32;;;;;;;59.70;23.08;;;17.50;99.90;;;;;;6180420;23;20005;-91
2021/10/20 06:55:58;;;;;;;56.33;24.23;;;17.60;99.90;;;;;;6180387;23;20056;-92
2021/10/20 06:58:24;;;;;;;63.50;24.13;;;17.50;99.90;;;;;;6180641;23;20005;-92
2021/10/20 07:00:50;;;;;;;61.03;24.60;;;17.60;99.90;;;;;;6182495;23;19997;-91
2021/10/20 07:03:15;;;;;;;61.17;26.38;;;17.60;99.90;;;;;;6180815;23;20430;-91
2021/10/20 07:05:41;;;;;;;61.97;25.90;;;17.60;99.90;;;;;;6180910;23;20122;-91
2021/10/20 07:08:07;;;;;;;50.90;25.10;;;17.60;99.90;;;;;;6181984;23;20001;-91
2021/10/20 07:10:33;;;;;;;59.15;26.05;;;17.60;99.90;;;;;;6180690;23;20338;-91
2021/10/20 07:12:58;;;;;;;61.58;25.95;;;17.60;99.90;;;;;;6180569;23;20346;-90
2021/10/20 07:15:24;;;;;;;57.80;24.83;;;17.60;99.90;;;;;;6181948;23;20005;-90
2021/10/20 07:17:50;;;;;;;66.35;25.17;;;17.60;99.90;;;;;;6181949;23;20009;-90
2021/10/20 07:20:16;;;;;;;75.63;26.63;;;17.60;99.90;;;;;;6182140;23;20005;-89
2021/10/20 07:22:42;;;;;;;68.43;26.85;;;17.60;99.90;;;;;;6181591;23;20088;-89
2021/10/20 07:25:10;;;;;;;59.53;26.50;;;17.70;99.90;;;;;;6181663;23;20524;-88
2021/10/20 07:27:37;;;;;;;62.70;26.75;;;17.70;99.90;;;;;;6181350;23;20497;-88
2021/10/20 07:30:06;;;;;;;70.38;27.75;;;17.70;99.90;;;;;;6181786;23;20068;-88
2021/10/20 07:32:32;;;;;;;59.95;25.95;;;17.70;99.90;;;;;;6180138;23;20006;-88
2021/10/20 07:34:57;;;;;;;70.85;27.30;;;17.80;99.90;;;;;;6181888;23;20393;-88
2021/10/20 07:37:23;;;;;;;63.47;26.65;;;17.80;99.90;;;;;;6181944;23;20009;-88
2021/10/20 07:39:49;;;;;;;58.65;25.50;;;17.80;99.90;;;;;;6183156;23;20028;-88
2021/10/20 07:42:14;;;;;;;62.70;26.42;;;17.80;99.90;;;;;;6183165;23;19997;-88
2021/10/20 07:44:40;;;;;;;64.05;26.42;;;17.80;99.90;;;;;;6183319;23;20005;-88
2021/10/20 07:47:06;;;;;;;66.18;25.13;;;17.80;99.90;;;;;;6183554;23;20445;-88
2021/10/20 07:49:32;;;;;;;59.40;23.88;;;17.90;99.90;;;;;;6181849;23;20012;-89
2021/10/20 07:51:58;;;;;;;63.50;25.48;;;17.90;99.90;;;;;;6183225;23;19997;-88
2021/10/20 07:54:27;;;;;;;61.63;23.70;;;17.90;99.90;;;;;;6184047;23;20438;-89
2021/10/20 07:56:53;;;;;;;58.83;22.95;;;17.90;99.90;;;;;;6187139;23;20083;-88
2021/10/20 07:59:20;;;;;;;60.95;22.55;;;17.90;99.90;;;;;;6183314;23;20005;-88
2021/10/20 08:01:45;;;;;;;52.80;22.88;;;17.90;99.90;;;;;;6183028;23;20005;-88
2021/10/20 08:04:11;;;;;;;73.20;22.55;;;17.90;99.90;;;;;;6183058;23;20079;-88
2021/10/20 08:06:37;;;;;;;49.72;20.63;;;17.90;99.90;;;;;;6183238;23;19997;-89
2021/10/20 08:09:03;;;;;;;51.08;21.35;;;17.90;99.90;;;;;;6181396;23;20035;-89
2021/10/20 08:11:28;;;;;;;50.47;20.23;;;18.00;99.90;;;;;;6183216;23;20001;-87
2021/10/20 08:13:54;;;;;;;53.67;20.23;;;18.00;99.90;;;;;;6181362;23;20005;-88
2021/10/20 08:16:20;;;;;;;48.40;20.00;;;18.00;99.90;;;;;;6182657;23;20005;-88
2021/10/20 08:18:45;;;;;;;53.30;19.23;;;18.00;99.90;;;;;;6183243;23;20008;-88
2021/10/20 08:21:11;;;;;;;46.90;19.25;;;18.00;99.90;;;;;;6183049;23;20028;-88
2021/10/20 08:23:41;;;;;;;56.85;20.50;;;18.00;99.90;;;;;;6182814;23;20055;-88
2021/10/20 08:26:08;;;;;;;58.13;18.13;;;18.00;99.90;;;;;;6181309;23;20449;-89
2021/10/20 08:28:34;;;;;;;51.35;18.77;;;18.00;99.90;;;;;;6181237;23;20419;-89
2021/10/20 08:31:00;;;;;;;52.15;19.85;;;18.00;99.90;;;;;;6181241;23;20016;-88
2021/10/20 08:33:26;;;;;;;48.85;18.65;;;18.00;99.90;;;;;;6182829;23;20080;-88
2021/10/20 08:35:51;;;;;;;48.47;19.05;;;18.10;99.90;;;;;;6181187;23;20027;-88
2021/10/20 08:38:17;;;;;;;46.17;18.13;;;18.20;99.90;;;;;;6182616;23;20005;-88
2021/10/20 08:40:47;;;;;;;61.03;19.65;;;18.40;99.90;;;;;;6182662;23;20005;-88
2021/10/20 08:43:17;;;;;;;45.83;18.98;;;18.40;99.90;;;;;;6181245;23;20029;-88
2021/10/20 08:45:44;;;;;;;53.15;18.85;;;18.50;99.90;;;;;;6182667;23;20004;-88
2021/10/20 08:48:10;;;;;;;49.50;19.23;;;18.50;99.90;;;;;;6180569;23;20395;-88
2021/10/20 08:50:37;;;;;;;47.97;18.38;;;18.50;99.90;;;;;;6182539;23;20047;-88
2021/10/20 08:53:03;;;;;;;43.30;19.02;;;18.50;99.90;;;;;;6180958;23;20005;-88
2021/10/20 08:55:29;;;;;;;48.90;19.42;;;18.50;99.90;;;;;;6182622;23;20016;-88
2021/10/20 08:57:56;;;;;;;47.38;18.40;;;18.60;99.90;;;;;;6182607;23;20005;-88
2021/10/20 09:00:23;;;;;;;40.40;18.50;;;18.60;99.90;;;;;;6181487;23;20051;-88
2021/10/20 09:02:49;;;;;;;50.72;19.83;;;18.70;99.90;;;;;;6182927;23;20006;-88
2021/10/20 09:05:17;;;;;;;40.53;17.58;;;18.70;99.90;;;;;;6180883;23;20071;-87
2021/10/20 09:07:45;;;;;;;41.95;18.17;;;18.70;99.90;;;;;;6182828;23;20024;-87
2021/10/20 09:10:12;;;;;;;61.25;20.77;;;18.70;99.90;;;;;;6182377;23;20005;-88
2021/10/20 09:12:40;;;;;;;48.70;19.10;;;18.70;99.90;;;;;;6180865;23;20093;-88
2021/10/20 09:15:19;;;;;;;47.00;19.98;;;18.60;99.90;;;;;;6180798;23;20447;-88
2021/10/20 09:17:58;;;;;;;43.72;20.10;;;18.60;99.90;;;;;;6180664;23;20532;-88
2021/10/20 09:20:55;;;;;;;47.25;20.38;;;18.70;99.90;;;;;;6182535;23;20059;-88
2021/10/20 09:23:21;;;;;;;53.42;20.77;;;18.70;99.90;;;;;;6177754;23;20040;-88
2021/10/20 09:25:51;;;;;;;51.80;21.45;;;18.80;99.90;;;;;;6182445;23;19997;-88
2021/10/20 09:28:29;;;;;;;38.95;19.58;;;18.90;99.90;;;;;;6182291;23;20027;-88
2021/10/20 09:30:57;;;;;;;43.85;19.83;;;19.00;99.90;;;;;;6182474;23;20001;-88
2021/10/20 09:33:24;;;;;;;47.17;20.48;;;19.20;99.90;;;;;;6182436;23;20028;-88
2021/10/20 09:35:50;;;;;;;48.13;19.70;;;19.20;99.90;;;;;;6180740;23;20032;-87
2021/10/20 09:38:16;;;;;;;40.13;19.90;;;19.10;99.90;;;;;;6182314;23;20009;-88
2021/10/20 09:40:45;;;;;;;40.40;16.95;;;19.20;99.90;;;;;;6182802;23;20430;-88
2021/10/20 09:43:17;;;;;;;44.72;19.08;;;19.10;99.90;;;;;;6180490;23;20012;-88
2021/10/20 09:45:45;;;;;;;41.15;17.73;;;19.20;99.90;;;;;;6182305;23;20001;-88
2021/10/20 09:48:25;;;;;;;42.45;16.60;;;19.40;99.90;;;;;;6183561;23;20065;-88
2021/10/20 09:51:12;;;;;;;38.03;17.13;;;19.50;99.90;;;;;;6180833;23;20005;-88
2021/10/20 09:53:40;;;;;;;36.47;16.30;;;19.70;99.90;;;;;;6180545;23;20020;-88
2021/10/20 09:56:27;;;;;;;40.08;16.02;;;19.70;99.90;;;;;;6182192;23;20025;-88
2021/10/20 09:58:54;;;;;;;40.20;15.45;;;19.80;99.90;;;;;;6180345;23;20002;-88
2021/10/20 10:01:22;;;;;;;33.83;16.15;;;19.80;99.90;;;;;;6180533;23;20009;-88
2021/10/20 10:03:49;;;;;;;38.35;16.73;;;19.80;99.90;;;;;;6182033;23;20096;-88
2021/10/20 10:06:15;;;;;;;32.80;15.85;;;19.80;99.90;;;;;;6182490;23;20001;-88
2021/10/20 10:08:42;;;;;;;36.13;16.95;;;19.80;99.90;;;;;;6180188;23;20414;-89
2021/10/20 10:11:07;;;;;;;39.45;17.38;;;19.80;99.90;;;;;;6180441;23;20001;-88
2021/10/20 10:13:43;;;;;;;38.90;16.45;;;19.60;99.90;;;;;;6181765;23;20005;-89
2021/10/20 10:16:09;;;;;;;41.30;15.98;;;19.60;99.90;;;;;;6182356;23;20023;-88
2021/10/20 10:18:38;;;;;;;38.42;16.90;;;19.60;99.90;;;;;;6180714;23;20060;-89
2021/10/20 10:21:30;;;;;;;34.83;15.70;;;19.60;99.90;;;;;;6182304;23;20024;-88
2021/10/20 10:23:57;;;;;;;32.35;15.75;;;19.60;99.90;;;;;;6180254;23;20017;-88
2021/10/20 10:26:24;;;;;;;43.80;15.80;;;19.60;99.90;;;;;;6180246;23;20008;-89
2021/10/20 10:29:18;;;;;;;33.13;15.60;;;19.60;99.90;;;;;;6181824;23;20035;-89
2021/10/20 10:31:44;;;;;;;38.80;14.73;;;19.60;99.90;;;;;;6165158;23;20053;-92
2021/10/20 10:34:19;;;;;;;43.70;15.75;;;19.60;99.90;;;;;;6182093;23;20021;-92
2021/10/20 10:37:00;;;;;;;38.80;14.07;;;19.50;99.90;;;;;;6182536;23;19997;-91
2021/10/20 10:39:27;;;;;;;38.45;13.32;;;19.60;99.90;;;;;;6180923;23;20312;-91
2021/10/20 10:42:00;;;;;;;35.80;12.52;;;19.60;99.90;;;;;;6181565;23;20072;-91
2021/10/20 10:44:50;;;;;;;26.53;11.37;;;19.70;99.90;;;;;;6182057;23;20017;-92
2021/10/20 10:47:26;;;;;;;29.85;11.50;;;19.70;99.90;;;;;;6181526;23;20233;-92
2021/10/20 10:49:55;;;;;;;26.58;11.23;;;19.70;99.90;;;;;;6180640;23;20004;-91
2021/10/20 10:52:35;;;;;;;31.13;11.25;;;19.70;99.90;;;;;;6181373;23;20032;-90
2021/10/20 10:55:22;;;;;;;32.80;11.52;;;19.80;99.90;;;;;;6180588;23;20067;-90
2021/10/20 10:57:50;;;;;;;31.17;11.15;;;19.80;99.90;;;;;;6180724;23;20184;-91
2021/10/20 11:00:20;;;;;;;32.13;12.02;;;19.80;99.90;;;;;;6180517;23;20005;-91
2021/10/20 11:02:57;;;;;;;28.60;11.38;;;19.80;99.90;;;;;;6180532;23;20020;-90
2021/10/20 11:05:25;;;;;;;29.15;10.82;;;19.80;99.90;;;;;;6180761;23;20059;-90
2021/10/20 11:07:53;;;;;;;28.98;12.05;;;19.80;99.90;;;;;;6182046;23;20458;-90
2021/10/20 11:10:20;;;;;;;24.92;10.65;;;19.80;99.90;;;;;;6181166;23;20089;-91
2021/10/20 11:12:51;;;;;;;28.33;10.43;;;19.70;99.90;;;;;;6184315;23;20073;-91
2021/10/20 11:15:18;;;;;;;28.15;11.10;;;19.60;99.90;;;;;;6182552;23;20013;-91
2021/10/20 11:17:44;;;;;;;29.10;10.85;;;19.40;99.90;;;;;;6182539;23;20013;-90
2021/10/20 11:20:14;;;;;;;30.70;11.90;;;19.20;99.90;;;;;;6183586;23;20032;-90
2021/10/20 11:22:43;;;;;;;33.60;10.63;;;19.10;99.90;;;;;;6182329;23;20005;-90
2021/10/20 11:25:11;;;;;;;27.27;10.63;;;19.20;99.90;;;;;;6182606;23;20039;-90
2021/10/20 11:27:38;;;;;;;33.35;11.15;;;19.20;99.90;;;;;;6184322;23;20075;-91
2021/10/20 11:30:05;;;;;;;29.30;10.02;;;19.50;99.90;;;;;;6182387;23;20005;-90
2021/10/20 11:32:31;;;;;;;27.02;10.75;;;19.70;99.90;;;;;;6182572;23;20035;-92
2021/10/20 11:34:57;;;;;;;27.55;10.95;;;19.70;99.90;;;;;;6182212;23;20006;-91
2021/10/20 11:37:24;;;;;;;31.13;11.23;;;19.80;99.90;;;;;;6184277;23;20124;-91
2021/10/20 11:40:08;;;;;;;33.83;13.27;;;20.00;99.90;;;;;;6192251;23;20001;-90
2021/10/20 11:42:41;;;;;;;29.45;11.43;;;20.10;99.90;;;;;;6190475;23;20001;-91
2021/10/20 11:45:07;;;;;;;32.65;12.02;;;20.10;99.90;;;;;;6184316;23;20051;-91
2021/10/20 11:47:39;;;;;;;29.38;12.63;;;20.00;99.90;;;;;;6184470;23;20008;-91
2021/10/20 11:50:05;;;;;;;32.33;12.23;;;20.00;99.90;;;;;;6183916;23;20024;-91
2021/10/20 11:52:34;;;;;;;31.88;11.75;;;20.00;99.90;;;;;;6182408;23;20386;-91
2021/10/20 11:55:01;;;;;;;27.48;11.27;;;20.20;99.90;;;;;;6184381;23;19997;-91
2021/10/20 11:57:26;;;;;;;32.03;11.68;;;20.20;99.90;;;;;;6184066;23;20339;-91
2021/10/20 11:59:52;;;;;;;26.13;10.75;;;20.20;99.90;;;;;;6182143;23;20008;-92
2021/10/20 12:02:18;;;;;;;33.53;11.65;;;20.20;99.90;;;;;;6182021;23;20009;-92
2021/10/20 12:04:48;;;;;;;30.23;10.88;;;20.10;99.90;;;;;;6182246;23;20013;-91
2021/10/20 12:07:16;;;;;;;30.02;11.07;;;20.10;99.90;;;;;;6184004;23;20004;-92
2021/10/20 12:09:44;;;;;;;33.42;11.90;;;20.20;99.90;;;;;;6182053;23;20004;-92
2021/10/20 12:12:11;;;;;;;24.92;10.57;;;19.90;99.90;;;;;;6182193;23;20039;-90
2021/10/20 12:14:39;;;;;;;29.27;10.98;;;19.90;99.90;;;;;;6181811;23;20035;-91
2021/10/20 12:17:07;;;;;;;27.23;10.88;;;19.80;99.90;;;;;;6181939;23;20357;-92
2021/10/20 12:19:36;;;;;;;30.52;10.45;;;19.90;99.90;;;;;;6182101;23;20331;-91
2021/10/20 12:22:07;;;;;;;32.25;10.40;;;19.90;99.90;;;;;;6182340;23;20035;-91
2021/10/20 12:24:38;;;;;;;31.75;9.30;;;20.10;99.90;;;;;;6182081;23;20017;-91
2021/10/20 12:27:07;;;;;;;27.85;9.77;;;20.30;99.90;;;;;;6181857;23;20346;-91
2021/10/20 12:29:38;;;;;;;31.88;10.45;;;20.30;99.90;;;;;;6181921;23;20012;-91
2021/10/20 12:32:07;;;;;;;24.40;8.45;;;20.20;99.90;;;;;;6182222;23;20346;-91